Time;durP1;ratioP1;P1;durP2;ratioP2;P2;SDS_P1;SDS_P2;PMS_P1;PMS_P2;Temp;Humidity;BMP_temperature;BMP_pressure;BME280_temperature;BME280_humidity;BME280_pressure;Samples;Min_cycle;Max_cycle;Signal;HPM_P1;HPM_P2
2024/03/08 00:00:18;;;;;;;0.68;0.00;;;;;;;6.40;91.58;100842.16;5130895;27;20059;-69
2024/03/08 00:02:44;;;;;;;0.10;0.00;;;;;;;6.41;93.54;100843.00;5129209;27;20035;-68
2024/03/08 00:05:11;;;;;;;0.13;0.00;;;;;;;6.39;90.22;100845.69;5107677;27;20027;-68
2024/03/08 00:07:37;;;;;;;0.90;0.03;;;;;;;6.43;91.34;100846.31;5131389;27;20067;-68
2024/03/08 00:10:03;;;;;;;0.38;0.00;;;;;;;6.49;87.49;100849.28;5130944;27;20047;-68
2024/03/08 00:12:29;;;;;;;0.80;0.00;;;;;;;6.49;89.40;100845.88;5125072;27;20047;-68
2024/03/08 00:14:54;;;;;;;0.10;0.00;;;;;;;6.51;88.25;100844.00;5132191;27;20066;-68
2024/03/08 00:17:22;;;;;;;0.30;0.00;;;;;;;6.58;87.64;100850.41;5130694;27;20075;-68
2024/03/08 00:19:49;;;;;;;0.10;0.00;;;;;;;6.58;87.98;100846.06;5132247;27;20031;-68
2024/03/08 00:22:16;;;;;;;1.27;0.00;;;;;;;6.57;88.37;100853.94;5122970;27;20037;-69
2024/03/08 00:24:41;;;;;;;0.10;0.00;;;;;;;6.56;87.83;100854.84;5134431;27;20031;-68
2024/03/08 00:27:07;;;;;;;0.30;0.00;;;;;;;6.58;86.14;100847.81;5130666;27;20038;-69
2024/03/08 00:29:32;;;;;;;0.22;0.00;;;;;;;6.56;87.92;100852.28;5132126;27;20027;-68
2024/03/08 00:31:57;;;;;;;1.40;0.00;;;;;;;6.51;87.70;100850.00;5131863;27;20046;-68
2024/03/08 00:34:23;;;;;;;0.00;0.00;;;;;;;6.55;86.38;100851.44;5130110;27;20028;-68
2024/03/08 00:36:49;;;;;;;0.00;0.00;;;;;;;6.56;86.21;100853.09;5131839;27;20046;-68
2024/03/08 00:39:14;;;;;;;0.15;0.00;;;;;;;6.56;86.08;100849.69;5130831;27;20117;-68
2024/03/08 00:41:40;;;;;;;0.17;0.00;;;;;;;6.55;87.15;100850.63;5132081;27;20370;-68
2024/03/08 00:44:05;;;;;;;0.05;0.00;;;;;;;6.51;87.09;100849.19;5130780;27;20019;-69
2024/03/08 00:46:31;;;;;;;0.08;0.00;;;;;;;6.51;87.94;100850.00;5112052;27;20043;-69
2024/03/08 00:48:57;;;;;;;0.30;0.00;;;;;;;6.50;87.86;100847.53;5123005;27;20023;-68
2024/03/08 00:51:22;;;;;;;0.00;0.00;;;;;;;6.52;89.47;100848.25;5129298;27;20035;-68
2024/03/08 00:53:47;;;;;;;0.00;0.00;;;;;;;6.52;86.87;100846.47;5130732;27;20027;-68
2024/03/08 00:56:13;;;;;;;0.20;0.00;;;;;;;6.47;85.63;100851.16;5109893;27;20547;-69
2024/03/08 00:58:38;;;;;;;0.13;0.00;;;;;;;6.47;86.37;100852.91;5131753;27;20130;-69
2024/03/08 01:01:04;;;;;;;0.10;0.00;;;;;;;6.45;90.07;100850.44;5129505;27;20118;-68
2024/03/08 01:03:31;;;;;;;0.10;0.00;;;;;;;6.43;86.59;100851.47;5128790;27;20113;-69
2024/03/08 01:05:57;;;;;;;0.17;0.00;;;;;;;6.39;86.47;100850.88;5133477;27;20030;-68
2024/03/08 01:08:23;;;;;;;0.00;0.00;;;;;;;6.37;87.10;100846.72;5130166;27;20019;-69
2024/03/08 01:10:50;;;;;;;0.52;0.00;;;;;;;6.37;85.53;100846.72;5129131;27;20035;-69
2024/03/08 01:13:16;;;;;;;0.13;0.00;;;;;;;6.36;85.87;100845.09;5122480;27;20046;-69
2024/03/08 01:15:41;;;;;;;0.25;0.00;;;;;;;6.35;85.54;100843.44;5110511;27;20031;-69
2024/03/08 01:18:07;;;;;;;0.10;0.00;;;;;;;6.33;86.79;100844.34;5128161;27;20551;-68
2024/03/08 01:20:32;;;;;;;0.28;0.00;;;;;;;6.32;85.20;100845.28;5124679;27;20065;-68
2024/03/08 01:22:57;;;;;;;0.20;0.00;;;;;;;6.31;85.99;100837.63;5126585;27;20039;-69
2024/03/08 01:25:23;;;;;;;0.20;0.10;;;;;;;6.30;85.60;100842.00;5126007;27;20370;-69
2024/03/08 01:27:48;;;;;;;0.22;0.00;;;;;;;6.27;84.69;100837.03;5128806;27;20063;-69
2024/03/08 01:30:17;;;;;;;0.10;0.00;;;;;;;6.19;86.91;100839.31;5127386;27;20039;-68
2024/03/08 01:32:43;;;;;;;0.88;0.10;;;;;;;6.14;87.30;100841.44;5129131;27;20113;-69
2024/03/08 01:35:09;;;;;;;0.10;0.00;;;;;;;6.15;88.66;100831.88;5125338;27;20388;-68
2024/03/08 01:37:35;;;;;;;0.20;0.00;;;;;;;6.14;87.15;100841.44;5109716;27;20057;-68
2024/03/08 01:40:00;;;;;;;0.30;0.10;;;;;;;6.10;86.56;100834.81;5127717;27;20064;-68
2024/03/08 01:42:26;;;;;;;0.00;0.00;;;;;;;6.13;84.68;100829.44;5127292;27;20092;-68
2024/03/08 01:44:51;;;;;;;0.35;0.00;;;;;;;6.16;85.36;100833.53;5125747;27;20363;-68
2024/03/08 01:47:17;;;;;;;0.45;0.10;;;;;;;6.16;84.93;100824.00;5128000;27;20112;-68
2024/03/08 01:49:44;;;;;;;0.30;0.10;;;;;;;6.19;83.73;100822.97;5125823;27;20023;-69
2024/03/08 01:52:11;;;;;;;0.32;0.03;;;;;;;6.19;84.68;100818.63;5126462;27;20085;-68
2024/03/08 01:54:37;;;;;;;0.47;0.00;;;;;;;6.19;85.19;100820.38;5125505;27;20054;-69
2024/03/08 01:57:02;;;;;;;0.22;0.03;;;;;;;6.20;84.69;100815.09;5129169;27;20514;-68
2024/03/08 01:59:28;;;;;;;0.40;0.10;;;;;;;6.22;85.39;100810.66;5129022;27;20312;-69
2024/03/08 02:02:01;;;;;;;0.30;0.10;;;;;;;6.23;84.26;100814.88;5128864;27;20023;-69
2024/03/08 02:04:27;;;;;;;0.22;0.10;;;;;;;6.24;83.30;100816.53;5125425;27;20438;-68
2024/03/08 02:06:52;;;;;;;0.38;0.10;;;;;;;6.24;83.27;100808.78;5130319;27;20031;-69
2024/03/08 02:09:18;;;;;;;0.30;0.10;;;;;;;6.23;83.24;100804.53;5128136;27;20027;-68
2024/03/08 02:11:43;;;;;;;2.05;0.20;;;;;;;6.24;83.21;100801.00;5128764;27;20420;-68
2024/03/08 02:14:11;;;;;;;0.40;0.10;;;;;;;6.27;84.45;100805.16;5125114;27;20180;-69
2024/03/08 02:16:37;;;;;;;0.60;0.20;;;;;;;6.26;82.49;100793.97;5129611;27;20062;-69
2024/03/08 02:19:03;;;;;;;2.88;0.32;;;;;;;6.25;85.59;100800.06;5127534;27;20030;-69
2024/03/08 02:21:29;;;;;;;1.13;0.35;;;;;;;6.27;83.85;100795.63;5128707;27;20424;-69
2024/03/08 02:23:55;;;;;;;1.35;0.30;;;;;;;6.30;83.49;100800.59;5127847;27;20039;-68
2024/03/08 02:26:20;;;;;;;0.73;0.20;;;;;;;6.28;82.19;100801.63;5126001;27;20038;-69
2024/03/08 02:28:46;;;;;;;0.70;0.20;;;;;;;6.27;82.64;100800.81;5125291;27;20410;-69
2024/03/08 02:31:12;;;;;;;1.30;0.40;;;;;;;6.26;84.69;100799.16;5128714;27;20153;-69
2024/03/08 02:33:37;;;;;;;4.05;0.22;;;;;;;6.24;83.48;100800.19;5131675;27;20122;-69
2024/03/08 02:36:04;;;;;;;0.80;0.20;;;;;;;6.22;84.72;100797.72;5129263;27;20057;-69
2024/03/08 02:38:29;;;;;;;1.38;0.30;;;;;;;6.20;85.10;100797.00;5128478;27;20058;-69
2024/03/08 02:40:55;;;;;;;0.80;0.20;;;;;;;6.19;85.64;100795.34;5133715;27;20043;-69
2024/03/08 02:43:24;;;;;;;0.90;0.32;;;;;;;6.16;81.86;100787.78;5130124;27;20035;-69
2024/03/08 02:45:50;;;;;;;3.03;1.15;;;;;;;6.17;83.60;100789.44;5134208;27;20023;-69
2024/03/08 02:48:16;;;;;;;0.95;0.25;;;;;;;6.23;85.65;100781.25;5125395;27;20027;-69
2024/03/08 02:50:44;;;;;;;1.00;0.40;;;;;;;6.26;82.70;100786.22;5127997;27;20048;-68
2024/03/08 02:53:11;;;;;;;0.98;0.40;;;;;;;6.28;83.19;100786.94;5128694;27;20051;-69
2024/03/08 02:55:40;;;;;;;0.95;0.30;;;;;;;6.29;82.48;100788.56;5129605;27;20035;-69
2024/03/08 02:58:09;;;;;;;1.35;0.40;;;;;;;6.36;85.08;100783.78;5128827;27;20031;-69
2024/03/08 03:00:36;;;;;;;1.95;0.43;;;;;;;6.31;83.63;100786.72;5124368;27;20034;-69
2024/03/08 03:03:02;;;;;;;2.17;0.50;;;;;;;6.35;82.80;100789.09;5127294;27;20033;-69
2024/03/08 03:05:29;;;;;;;1.95;0.50;;;;;;;6.39;86.76;100787.94;5130281;27;20107;-69
2024/03/08 03:07:55;;;;;;;1.20;0.40;;;;;;;6.37;89.98;100790.63;5129704;27;20096;-69
2024/03/08 03:10:21;;;;;;;1.13;0.38;;;;;;;6.33;90.79;100790.00;5124806;27;20051;-69
2024/03/08 03:12:48;;;;;;;1.38;0.50;;;;;;;6.27;85.55;100793.03;5130982;27;20031;-69
2024/03/08 03:15:16;;;;;;;1.98;0.38;;;;;;;6.31;87.45;100786.72;5130166;27;20042;-69
2024/03/08 03:17:46;;;;;;;2.00;0.38;;;;;;;6.31;92.41;100786.72;5131363;27;20374;-69
2024/03/08 03:20:22;;;;;;;1.17;0.47;;;;;;;6.25;95.16;100792.31;5130996;27;20367;-69
2024/03/08 03:22:51;;;;;;;;;;;;;;;6.13;84.86;100795.78;5125953;27;20402;-69
2024/03/08 03:25:23;;;;;;;1.55;0.40;;;;;;;6.22;86.98;100797.72;5126689;27;19924;-69
2024/03/08 03:27:49;;;;;;;2.17;0.80;;;;;;;6.24;83.30;100801.00;5128734;27;20427;-69
2024/03/08 03:30:20;;;;;;;1.75;0.57;;;;;;;6.25;84.82;100796.66;5130266;27;20031;-69
2024/03/08 03:32:50;;;;;;;1.45;0.60;;;;;;;6.26;83.31;100796.56;5129085;27;20131;-69
2024/03/08 03:35:17;;;;;;;1.05;0.50;;;;;;;6.23;84.72;100798.53;5130147;27;20092;-69
2024/03/08 03:37:45;;;;;;;1.77;0.52;;;;;;;6.22;83.61;100787.34;5128322;27;20797;-69
2024/03/08 03:40:11;;;;;;;1.95;0.70;;;;;;;6.21;85.31;100790.06;5129119;27;20381;-69
2024/03/08 03:42:38;;;;;;;1.30;0.50;;;;;;;6.20;86.40;100780.63;5132750;27;20396;-69
2024/03/08 03:45:05;;;;;;;3.15;0.70;;;;;;;6.18;84.40;100782.50;5128802;27;20023;-69
2024/03/08 03:47:31;;;;;;;2.97;0.85;;;;;;;6.16;82.88;100781.78;5128713;27;20053;-69
2024/03/08 03:50:01;;;;;;;1.00;0.50;;;;;;;6.15;84.06;100780.97;5132202;27;20482;-69
2024/03/08 03:52:27;;;;;;;1.55;0.50;;;;;;;6.14;84.79;100781.94;5127212;27;20601;-69
2024/03/08 03:54:52;;;;;;;1.17;0.30;;;;;;;6.23;80.38;100789.00;5129872;27;20038;-69
2024/03/08 03:57:18;;;;;;;5.10;0.93;;;;;;;6.28;81.78;100796.44;5129167;27;20027;-69
2024/03/08 03:59:44;;;;;;;2.05;0.50;;;;;;;6.24;79.59;100800.19;5131035;27;20038;-69
2024/03/08 04:02:09;;;;;;;1.52;0.40;;;;;;;6.24;84.36;100805.38;5108559;27;20074;-69
2024/03/08 04:04:35;;;;;;;1.58;0.43;;;;;;;6.21;85.00;100806.41;5129534;27;20019;-69
2024/03/08 04:07:02;;;;;;;1.83;0.52;;;;;;;6.24;88.69;100806.19;5125986;27;20469;-69
2024/03/08 04:09:27;;;;;;;1.20;0.63;;;;;;;6.18;89.28;100800.63;5127858;27;20042;-69
2024/03/08 04:11:55;;;;;;;1.05;0.47;;;;;;;6.16;91.81;100803.31;5130705;27;20116;-69
2024/03/08 04:14:20;;;;;;;1.35;0.50;;;;;;;6.08;91.02;100800.47;5128825;27;20073;-69
2024/03/08 04:16:48;;;;;;;1.50;0.75;;;;;;;6.14;90.57;100804.38;5131137;27;20062;-69
2024/03/08 04:19:13;;;;;;;1.55;0.50;;;;;;;6.16;91.71;100803.31;5128850;27;20060;-69
2024/03/08 04:21:39;;;;;;;1.73;0.55;;;;;;;6.11;86.92;100797.66;5130702;27;20390;-69
2024/03/08 04:24:05;;;;;;;4.15;0.90;;;;;;;6.11;86.64;100802.84;5128589;27;20043;-69
2024/03/08 04:26:31;;;;;;;3.45;1.13;;;;;;;6.16;85.15;100799.91;5129245;27;20103;-69
2024/03/08 04:28:56;;;;;;;1.98;0.60;;;;;;;6.20;87.74;100796.16;5132003;27;20534;-69
2024/03/08 04:31:22;;;;;;;4.18;0.80;;;;;;;6.20;89.80;100803.94;5129256;27;20104;-69
2024/03/08 04:33:48;;;;;;;6.53;1.65;;;;;;;6.16;93.27;100800.72;5131679;27;20062;-69
2024/03/08 04:36:13;;;;;;;4.20;1.77;;;;;;;6.11;95.17;100800.25;5131114;27;20062;-69
2024/03/08 04:38:42;;;;;;;7.28;1.25;;;;;;;6.04;96.71;100799.03;5131644;27;20505;-69
2024/03/08 04:41:07;;;;;;;8.35;2.08;;;;;;;5.95;98.97;100802.25;5129818;27;20118;-69
2024/03/08 04:43:34;;;;;;;5.47;1.73;;;;;;;5.87;98.52;100797.56;5131632;27;20110;-69
2024/03/08 04:45:59;;;;;;;3.97;1.20;;;;;;;5.82;100.00;100799.66;5131941;27;20023;-69
2024/03/08 04:48:28;;;;;;;4.35;1.25;;;;;;;5.79;100.00;100806.78;5128657;27;20035;-69
2024/03/08 04:50:53;;;;;;;2.55;1.17;;;;;;;5.74;100.00;100806.28;5130403;27;20035;-69
2024/03/08 04:53:19;;;;;;;2.65;0.85;;;;;;;5.72;100.00;100802.97;5129443;27;20039;-69
2024/03/08 04:55:44;;;;;;;4.50;1.27;;;;;;;5.71;100.00;100802.13;5129928;27;20092;-69
2024/03/08 04:58:10;;;;;;;4.40;0.70;;;;;;;5.65;100.00;100802.59;5130734;27;20035;-69
2024/03/08 05:00:35;;;;;;;3.10;1.05;;;;;;;5.61;100.00;100807.13;5131406;27;20038;-69
2024/03/08 05:03:01;;;;;;;2.72;0.82;;;;;;;5.56;100.00;100806.63;5130478;27;20124;-69
2024/03/08 05:05:28;;;;;;;2.25;1.00;;;;;;;5.54;100.00;100807.66;5128390;27;20020;-69
2024/03/08 05:07:53;;;;;;;2.55;0.80;;;;;;;5.54;100.00;100813.66;5130304;27;20027;-69
2024/03/08 05:10:19;;;;;;;3.67;1.05;;;;;;;5.53;100.00;100809.41;5126947;27;20057;-69
2024/03/08 05:12:44;;;;;;;2.97;1.05;;;;;;;5.53;100.00;100817.16;5127751;27;20073;-69
2024/03/08 05:15:10;;;;;;;4.05;1.13;;;;;;;5.53;100.00;100811.16;5129492;27;20031;-69
2024/03/08 05:17:35;;;;;;;3.75;1.08;;;;;;;5.49;100.00;100807.97;5128238;27;20065;-69
2024/03/08 05:20:01;;;;;;;4.65;0.88;;;;;;;5.46;100.00;100818.50;5125581;27;20027;-69
2024/03/08 05:22:27;;;;;;;2.78;1.08;;;;;;;5.44;100.00;100815.19;5129484;27;20038;-69
2024/03/08 05:24:53;;;;;;;2.75;0.88;;;;;;;5.45;100.00;100814.25;5127936;27;20485;-69
2024/03/08 05:27:18;;;;;;;3.38;1.35;;;;;;;5.42;100.00;100817.03;5129155;27;20031;-69
2024/03/08 05:29:44;;;;;;;2.72;1.15;;;;;;;5.40;100.00;100818.06;5126896;27;20030;-69
2024/03/08 05:32:09;;;;;;;4.40;1.17;;;;;;;5.39;100.00;100813.84;5125430;27;20042;-69
2024/03/08 05:34:35;;;;;;;2.97;1.30;;;;;;;5.36;100.00;100820.03;5127661;27;20113;-69
2024/03/08 05:37:01;;;;;;;6.35;2.33;;;;;;;5.38;100.00;100825.09;5128867;27;20031;-69
2024/03/08 05:39:27;;;;;;;3.00;1.27;;;;;;;5.39;100.00;100825.00;5128059;27;20461;-69
2024/03/08 05:41:52;;;;;;;2.50;1.20;;;;;;;5.41;100.00;100819.72;5127625;27;20122;-69
2024/03/08 05:44:18;;;;;;;2.58;1.33;;;;;;;5.41;100.00;100830.91;5126544;27;20203;-69
2024/03/08 05:46:43;;;;;;;5.05;1.70;;;;;;;5.39;100.00;100827.59;5111852;27;20478;-69
2024/03/08 05:49:09;;;;;;;2.38;1.40;;;;;;;5.38;100.00;100825.94;5128658;27;20043;-69
2024/03/08 05:51:36;;;;;;;2.97;1.50;;;;;;;5.46;100.00;100833.19;5128324;27;20027;-69
2024/03/08 05:54:12;;;;;;;3.20;1.63;;;;;;;5.47;100.00;100833.06;5129976;27;20405;-69
2024/03/08 05:56:42;;;;;;;2.67;1.40;;;;;;;5.49;100.00;100838.97;5128107;27;20042;-69
2024/03/08 05:59:07;;;;;;;2.70;0.90;;;;;;;5.47;100.00;100827.91;5127307;27;20027;-69
2024/03/08 06:01:35;;;;;;;7.13;2.40;;;;;;;5.46;100.00;100830.59;5130631;27;20057;-69
2024/03/08 06:04:02;;;;;;;6.00;1.73;;;;;;;5.48;100.00;100839.06;5129891;27;20051;-69
2024/03/08 06:06:27;;;;;;;2.92;1.40;;;;;;;5.48;100.00;100832.16;5132854;27;20055;-69
2024/03/08 06:08:53;;;;;;;7.55;1.90;;;;;;;5.51;100.00;100841.44;5134922;27;20111;-69
2024/03/08 06:11:20;;;;;;;16.85;5.35;;;;;;;5.52;100.00;100841.34;5132266;27;20066;-69
2024/03/08 06:13:46;;;;;;;10.50;3.10;;;;;;;5.54;100.00;100846.41;5134799;27;20038;-69
2024/03/08 06:16:11;;;;;;;9.68;2.95;;;;;;;5.56;100.00;100845.38;5132803;27;20023;-69
2024/03/08 06:18:37;;;;;;;6.35;3.00;;;;;;;5.61;100.00;100845.91;5134419;27;20085;-69
2024/03/08 06:21:06;;;;;;;4.72;2.30;;;;;;;5.64;100.00;100850.03;5133939;27;20121;-69
2024/03/08 06:23:44;;;;;;;11.13;5.15;;;;;;;5.70;100.00;100864.28;5114899;27;20023;-69
2024/03/08 06:26:09;;;;;;;9.32;3.92;;;;;;;5.74;100.00;100863.16;5131175;27;20026;-69
2024/03/08 06:28:34;;;;;;;5.38;2.72;;;;;;;5.75;100.00;100864.81;5131998;27;20035;-69
2024/03/08 06:31:01;;;;;;;8.63;3.60;;;;;;;5.80;100.00;100863.56;5131594;27;20034;-69
2024/03/08 06:33:27;;;;;;;7.15;3.72;;;;;;;5.87;100.00;100864.81;5131106;27;20087;-69
2024/03/08 06:35:58;;;;;;;5.53;2.70;;;;;;;5.92;100.00;100857.59;5132268;27;20505;-69
2024/03/08 06:38:24;;;;;;;3.95;1.90;;;;;;;5.92;100.00;100856.75;5133387;27;20031;-69
2024/03/08 06:40:51;;;;;;;5.75;2.50;;;;;;;5.97;100.00;100858.09;5131436;27;20027;-69
2024/03/08 06:43:17;;;;;;;5.60;2.58;;;;;;;6.07;100.00;100866.06;5136120;27;20034;-68
2024/03/08 06:45:48;;;;;;;4.78;2.25;;;;;;;6.17;100.00;100867.06;5134646;27;20366;-68
2024/03/08 06:48:17;;;;;;;5.55;2.67;;;;;;;6.20;100.00;100866.84;5130189;27;20065;-69
2024/03/08 06:50:46;;;;;;;6.10;1.95;;;;;;;6.21;100.00;100868.50;5128597;27;20035;-69
2024/03/08 06:53:13;;;;;;;4.43;1.83;;;;;;;6.15;100.00;100874.09;5129398;27;20066;-69
2024/03/08 06:55:39;;;;;;;3.90;2.00;;;;;;;6.25;100.00;100875.13;5140176;27;20110;-69
2024/03/08 06:58:04;;;;;;;5.65;1.83;;;;;;;6.41;100.00;100874.88;5137982;27;20092;-69
2024/03/08 07:00:30;;;;;;;6.22;2.38;;;;;;;6.53;100.00;100868.03;5134916;27;20035;-69
2024/03/08 07:03:00;;;;;;;5.55;2.75;;;;;;;6.61;100.00;100876.91;5134068;27;20034;-69
2024/03/08 07:05:26;;;;;;;7.30;2.90;;;;;;;6.68;100.00;100873.84;5131841;27;20125;-69
2024/03/08 07:07:52;;;;;;;7.03;3.03;;;;;;;6.72;100.00;100880.47;5131239;27;20114;-69
2024/03/08 07:10:19;;;;;;;4.97;2.08;;;;;;;6.76;100.00;100874.97;5130604;27;20135;-69
2024/03/08 07:12:46;;;;;;;6.38;2.88;;;;;;;6.82;100.00;100879.69;5132744;27;20031;-69
2024/03/08 07:15:13;;;;;;;3.53;1.95;;;;;;;6.83;100.00;100877.94;5132964;27;20125;-69
2024/03/08 07:17:39;;;;;;;4.85;1.83;;;;;;;6.75;100.00;100878.47;5131202;27;20470;-69
2024/03/08 07:20:11;;;;;;;6.20;2.10;;;;;;;6.73;100.00;100875.19;5111947;27;20386;-69
2024/03/08 07:22:38;;;;;;;3.80;1.42;;;;;;;6.69;100.00;100878.91;5131474;27;20398;-69
2024/03/08 07:27:36;;;;;;;4.35;1.90;;;;;;;6.83;100.00;100886.53;5127297;27;20458;-69
2024/03/08 07:30:05;;;;;;;4.60;2.10;;;;;;;6.90;100.00;100898.09;5110219;27;20034;-69
2024/03/08 07:32:31;;;;;;;5.35;1.65;;;;;;;7.03;100.00;100887.69;5125850;27;20035;-69
2024/03/08 07:34:57;;;;;;;3.75;1.45;;;;;;;7.10;100.00;100893.22;5128662;27;20036;-69
2024/03/08 07:37:23;;;;;;;3.83;1.60;;;;;;;7.18;100.00;100893.50;5125086;27;20059;-69
2024/03/08 07:39:49;;;;;;;4.53;1.67;;;;;;;7.16;100.00;100887.59;5123129;27;20032;-69
2024/03/08 07:42:14;;;;;;;4.22;1.63;;;;;;;7.03;95.36;100887.69;5126685;27;20070;-69
2024/03/08 07:44:40;;;;;;;3.85;1.63;;;;;;;6.97;92.55;100883.78;5128577;27;20031;-69
2024/03/08 07:47:09;;;;;;;4.70;1.67;;;;;;;6.90;90.72;100879.16;5128768;27;20084;-69
2024/03/08 07:49:34;;;;;;;3.97;1.33;;;;;;;6.87;93.12;100882.78;5127958;27;20080;-69
2024/03/08 07:52:00;;;;;;;5.18;1.50;;;;;;;6.88;89.13;100887.03;5128253;27;20034;-69
2024/03/08 07:54:25;;;;;;;3.35;1.45;;;;;;;6.96;93.45;100876.13;5125506;27;20036;-69
2024/03/08 07:56:52;;;;;;;3.40;1.23;;;;;;;7.05;94.72;100885.81;5127676;27;20398;-70
2024/03/08 07:59:18;;;;;;;4.35;1.55;;;;;;;7.02;88.54;100875.69;5126271;27;20259;-69
2024/03/08 08:01:44;;;;;;;4.82;1.85;;;;;;;7.04;92.42;100885.94;5127827;27;20033;-70
2024/03/08 08:04:12;;;;;;;3.42;1.67;;;;;;;7.16;95.22;100883.25;5124128;27;20498;-70
2024/03/08 08:06:41;;;;;;;4.72;1.50;;;;;;;7.28;97.02;100892.72;5130900;27;20035;-69
2024/03/08 08:09:14;;;;;;;7.13;2.05;;;;;;;7.47;99.01;100893.97;5129397;27;20046;-70
2024/03/08 08:11:40;;;;;;;4.25;2.38;;;;;;;7.52;98.19;100886.66;5128287;27;20451;-69
2024/03/08 08:14:09;;;;;;;4.35;2.17;;;;;;;7.63;99.83;100892.69;5127608;27;20452;-70
2024/03/08 08:16:36;;;;;;;4.80;2.00;;;;;;;7.69;99.38;100894.00;5129481;27;20065;-70
2024/03/08 08:19:05;;;;;;;5.07;1.98;;;;;;;7.70;99.16;100900.00;5126994;27;20470;-70
2024/03/08 08:21:33;;;;;;;2.72;1.52;;;;;;;7.68;98.99;100891.50;5129194;27;20042;-70
2024/03/08 08:24:00;;;;;;;5.82;1.67;;;;;;;7.57;95.91;100887.13;5126478;27;20023;-70
2024/03/08 08:26:26;;;;;;;5.32;1.90;;;;;;;7.65;98.53;100890.81;5127471;27;20572;-70
2024/03/08 08:28:52;;;;;;;5.15;2.05;;;;;;;7.55;91.24;100883.84;5129115;27;20031;-70
2024/03/08 08:31:19;;;;;;;5.10;1.98;;;;;;;7.68;96.99;100894.94;5127653;27;20039;-71
2024/03/08 08:33:44;;;;;;;4.68;1.83;;;;;;;7.73;95.92;100889.41;5124512;27;20066;-70
2024/03/08 08:36:10;;;;;;;2.53;1.10;;;;;;;7.70;94.36;100894.81;5126953;27;20062;-70
2024/03/08 08:38:35;;;;;;;3.80;1.58;;;;;;;7.78;95.70;100885.53;5126939;27;20039;-70
2024/03/08 08:41:02;;;;;;;3.20;1.42;;;;;;;7.96;96.33;100893.69;5127427;27;20046;-70
2024/03/08 08:43:28;;;;;;;5.13;1.80;;;;;;;8.11;96.55;100891.66;5129453;27;20091;-70
2024/03/08 08:45:55;;;;;;;3.90;1.50;;;;;;;8.19;96.96;100895.31;5131739;27;20118;-70
2024/03/08 08:48:20;;;;;;;4.28;1.58;;;;;;;8.21;91.62;100893.44;5111024;27;20042;-70
2024/03/08 08:50:46;;;;;;;4.28;1.13;;;;;;;8.19;94.34;100894.50;5131795;27;20420;-70
2024/03/08 08:53:14;;;;;;;8.15;1.73;;;;;;;8.28;95.21;100898.97;5130854;27;20118;-70
2024/03/08 08:55:40;;;;;;;3.22;1.60;;;;;;;8.12;85.98;100906.28;5129316;27;20031;-70
2024/03/08 08:58:07;;;;;;;5.25;1.42;;;;;;;7.95;89.92;100905.81;5125286;27;20028;-70
2024/03/08 09:00:34;;;;;;;3.95;1.30;;;;;;;7.96;83.53;100904.06;5129636;27;20027;-71
2024/03/08 09:03:00;;;;;;;4.35;1.52;;;;;;;8.04;91.38;100904.28;5123743;27;20023;-70
2024/03/08 09:05:26;;;;;;;3.75;1.55;;;;;;;8.16;92.54;100905.09;5126181;27;20030;-72
2024/03/08 09:07:52;;;;;;;6.18;1.70;;;;;;;8.01;84.48;100899.34;5128375;27;20069;-71
2024/03/08 09:10:18;;;;;;;3.55;1.38;;;;;;;8.01;89.04;100898.53;5130773;27;20123;-71
2024/03/08 09:12:44;;;;;;;5.20;2.05;;;;;;;8.12;93.72;100901.91;5131338;27;20482;-70
2024/03/08 09:15:11;;;;;;;4.60;1.77;;;;;;;8.22;95.10;100902.03;5130650;27;20047;-70
2024/03/08 09:17:39;;;;;;;3.72;1.17;;;;;;;8.19;95.56;100894.50;5131451;27;20042;-70
2024/03/08 09:20:06;;;;;;;5.15;2.10;;;;;;;8.07;92.82;100898.84;5125190;27;20047;-70
2024/03/08 09:22:32;;;;;;;3.53;1.63;;;;;;;7.93;92.71;100899.09;5131133;27;20080;-70
2024/03/08 09:24:57;;;;;;;2.22;1.30;;;;;;;7.89;92.92;100903.69;5131135;27;20027;-70
2024/03/08 09:27:23;;;;;;;3.25;1.45;;;;;;;7.92;93.83;100907.81;5130629;27;20041;-70
2024/03/08 09:29:48;;;;;;;3.30;1.65;;;;;;;7.85;92.26;100906.63;5131347;27;20050;-70
2024/03/08 09:32:14;;;;;;;2.63;1.08;;;;;;;7.86;93.11;100911.72;5130539;27;20562;-70
2024/03/08 09:34:40;;;;;;;2.88;1.50;;;;;;;7.93;95.51;100912.06;5130938;27;20039;-70
2024/03/08 09:37:05;;;;;;;2.60;1.40;;;;;;;7.97;95.82;100906.53;5130244;27;20035;-71
2024/03/08 09:39:31;;;;;;;3.22;1.30;;;;;;;8.02;97.16;100911.38;5130846;27;20030;-70
2024/03/08 09:41:56;;;;;;;3.28;1.25;;;;;;;8.02;97.79;100908.78;5131137;27;20039;-71
2024/03/08 09:44:23;;;;;;;2.40;1.08;;;;;;;8.03;98.80;100910.44;5130222;27;20084;-70
2024/03/08 09:46:52;;;;;;;4.20;1.40;;;;;;;8.01;99.27;100911.50;5125367;27;20107;-70
2024/03/08 09:49:18;;;;;;;4.15;1.80;;;;;;;7.99;98.22;100916.81;5129464;27;20465;-70
2024/03/08 09:51:44;;;;;;;7.72;1.88;;;;;;;8.02;99.09;100913.97;5130856;27;20039;-70
2024/03/08 09:54:09;;;;;;;3.58;1.10;;;;;;;8.08;99.85;100913.47;5130005;27;20031;-70
2024/03/08 09:56:35;;;;;;;3.97;1.70;;;;;;;8.09;99.13;100919.50;5130611;27;20091;-70
2024/03/08 09:59:41;;;;;;;5.18;2.08;;;;;;;7.96;94.25;100915.25;5130191;27;20065;-70
2024/03/08 10:02:05;;;;;;;4.50;1.98;;;;;;;8.02;96.91;100908.78;5129823;27;20043;-70
2024/03/08 10:04:30;;;;;;;7.47;1.77;;;;;;;8.09;96.47;100909.94;5130704;27;20041;-70
2024/03/08 10:06:59;;;;;;;3.55;1.55;;;;;;;8.05;95.15;100908.53;5130700;27;20070;-71
2024/03/08 10:09:27;;;;;;;3.97;1.88;;;;;;;8.20;97.55;100914.31;5129798;27;20039;-70
2024/03/08 10:11:59;;;;;;;4.82;2.20;;;;;;;8.20;95.00;100916.91;5130579;27;20054;-70
2024/03/08 10:14:28;;;;;;;3.40;1.50;;;;;;;8.40;96.83;100921.41;5108115;27;20096;-71
2024/03/08 10:16:54;;;;;;;5.40;2.03;;;;;;;8.55;96.73;100912.41;5110950;28;20395;-70
2024/03/08 10:19:20;;;;;;;5.78;1.95;;;;;;;8.74;97.67;100917.00;5131936;27;20031;-70
2024/03/08 10:21:53;;;;;;;3.90;1.70;;;;;;;8.64;94.09;100911.69;5124676;27;20035;-70
2024/03/08 10:24:19;;;;;;;3.72;1.15;;;;;;;8.45;88.75;100914.09;5121716;27;20475;-70
2024/03/08 10:26:44;;;;;;;4.32;1.67;;;;;;;8.34;83.94;100914.09;5124875;27;20031;-70
2024/03/08 10:29:15;;;;;;;4.35;2.00;;;;;;;8.11;87.21;100910.66;5121190;27;20027;-70
2024/03/08 10:31:43;;;;;;;3.42;1.33;;;;;;;8.28;89.89;100912.78;5121634;27;20039;-70
2024/03/08 10:34:09;;;;;;;5.32;1.55;;;;;;;8.35;88.27;100910.56;5109919;27;20039;-70
2024/03/08 10:36:37;;;;;;;3.58;1.20;;;;;;;8.12;84.64;100909.69;5126267;27;20031;-71
2024/03/08 10:39:17;;;;;;;5.72;1.20;;;;;;;8.10;90.12;100903.81;5125337;27;20035;-70
2024/03/08 10:41:46;;;;;;;3.53;1.20;;;;;;;8.30;93.59;100910.88;5129249;27;20037;-70
2024/03/08 10:44:21;;;;;;;4.22;1.50;;;;;;;8.45;93.09;100915.88;5125635;27;20035;-70
2024/03/08 10:47:05;;;;;;;3.85;1.55;;;;;;;8.38;89.51;100919.88;5127940;27;20039;-70
2024/03/08 10:49:39;;;;;;;3.42;1.38;;;;;;;8.23;85.63;100916.66;5125411;27;20507;-70
2024/03/08 10:52:14;;;;;;;3.38;1.02;;;;;;;8.13;86.59;100919.13;5130012;27;20035;-70
2024/03/08 10:54:42;;;;;;;2.53;1.02;;;;;;;7.97;86.54;100909.13;5130204;27;20493;-70
2024/03/08 10:57:10;;;;;;;3.35;1.20;;;;;;;7.80;83.93;100908.75;5127103;27;20301;-69
2024/03/08 10:59:36;;;;;;;2.50;1.05;;;;;;;7.80;86.31;100908.75;5120987;27;20379;-70
2024/03/08 11:02:01;;;;;;;5.28;0.88;;;;;;;7.72;84.49;100911.09;5123862;27;20026;-69
2024/03/08 11:04:29;;;;;;;2.30;1.45;;;;;;;7.66;82.56;100908.00;5127859;27;20042;-70
2024/03/08 11:07:06;;;;;;;2.63;1.00;;;;;;;7.76;88.49;100907.31;5124584;27;20035;-69
2024/03/08 11:09:36;;;;;;;4.38;1.17;;;;;;;7.86;87.44;100900.50;5129998;27;20034;-69
2024/03/08 11:12:42;;;;;;;4.70;1.13;;;;;;;7.80;84.61;100903.56;5127982;27;20031;-69
2024/03/08 11:15:19;;;;;;;2.50;1.10;;;;;;;7.57;82.34;100903.50;5125345;27;20125;-70
2024/03/08 11:17:48;;;;;;;2.13;1.05;;;;;;;7.60;87.44;100898.09;5126430;27;20038;-69
2024/03/08 11:20:20;;;;;;;3.80;1.02;;;;;;;7.75;91.69;100900.47;5123939;27;20046;-69
2024/03/08 11:23:01;;;;;;;2.88;0.98;;;;;;;7.79;93.84;100896.72;5131579;27;20488;-69
2024/03/08 11:25:41;;;;;;;2.47;1.00;;;;;;;7.77;94.08;100898.59;5124487;27;20031;-69
2024/03/08 11:28:20;;;;;;;2.53;1.00;;;;;;;7.59;87.17;100888.66;5122990;27;20045;-69
2024/03/08 11:31:10;;;;;;;2.17;1.30;;;;;;;7.44;84.73;100897.59;5125136;27;20031;-69
2024/03/08 11:33:36;;;;;;;2.63;1.30;;;;;;;7.37;87.29;100880.84;5127202;27;20035;-69